sensor_id;sensor_type;location;lat;lon;timestamp;P1;durP1;ratioP1;P2;durP2;ratioP2
2866;SDS011;1441;48.886;8.728;2022-07-29T00:02:24;8.73;;;4.43;;
2866;SDS011;1441;48.886;8.728;2022-07-29T00:04:50;4.83;;;3.90;;
2866;SDS011;1441;48.886;8.728;2022-07-29T00:07:15;4.53;;;4.23;;
2866;SDS011;1441;48.886;8.728;2022-07-29T00:09:41;3.90;;;3.60;;
2866;SDS011;1441;48.886;8.728;2022-07-29T00:12:06;4.67;;;4.07;;
2866;SDS011;1441;48.886;8.728;2022-07-29T00:14:32;11.00;;;3.30;;
2866;SDS011;1441;48.886;8.728;2022-07-29T00:16:58;5.90;;;4.10;;
2866;SDS011;1441;48.886;8.728;2022-07-29T00:19:23;3.90;;;3.53;;
2866;SDS011;1441;48.886;8.728;2022-07-29T00:21:49;4.13;;;3.57;;
2866;SDS011;1441;48.886;8.728;2022-07-29T00:24:14;3.30;;;3.10;;
2866;SDS011;1441;48.886;8.728;2022-07-29T00:26:40;4.73;;;3.77;;
2866;SDS011;1441;48.886;8.728;2022-07-29T00:29:05;4.03;;;3.63;;
2866;SDS011;1441;48.886;8.728;2022-07-29T00:31:31;6.23;;;3.93;;
2866;SDS011;1441;48.886;8.728;2022-07-29T00:33:56;6.50;;;4.60;;
2866;SDS011;1441;48.886;8.728;2022-07-29T00:36:22;4.10;;;3.77;;
2866;SDS011;1441;48.886;8.728;2022-07-29T00:38:48;3.60;;;3.30;;
2866;SDS011;1441;48.886;8.728;2022-07-29T00:41:15;5.93;;;4.10;;
2866;SDS011;1441;48.886;8.728;2022-07-29T00:43:41;5.03;;;4.50;;
2866;SDS011;1441;48.886;8.728;2022-07-29T00:46:08;5.30;;;4.50;;
2866;SDS011;1441;48.886;8.728;2022-07-29T00:48:33;3.90;;;3.60;;
2866;SDS011;1441;48.886;8.728;2022-07-29T00:50:59;4.20;;;3.73;;
2866;SDS011;1441;48.886;8.728;2022-07-29T00:53:27;6.20;;;3.70;;
2866;SDS011;1441;48.886;8.728;2022-07-29T00:55:54;4.37;;;3.97;;
2866;SDS011;1441;48.886;8.728;2022-07-29T00:58:21;8.87;;;4.00;;
2866;SDS011;1441;48.886;8.728;2022-07-29T01:00:47;4.53;;;4.10;;
2866;SDS011;1441;48.886;8.728;2022-07-29T01:03:12;4.17;;;3.87;;
2866;SDS011;1441;48.886;8.728;2022-07-29T01:05:38;5.07;;;3.40;;
2866;SDS011;1441;48.886;8.728;2022-07-29T01:08:07;4.80;;;3.77;;
2866;SDS011;1441;48.886;8.728;2022-07-29T01:10:35;5.90;;;3.70;;
2866;SDS011;1441;48.886;8.728;2022-07-29T01:13:03;4.90;;;4.00;;
2866;SDS011;1441;48.886;8.728;2022-07-29T01:15:29;5.13;;;4.20;;
2866;SDS011;1441;48.886;8.728;2022-07-29T01:30:02;4.93;;;3.53;;
2866;SDS011;1441;48.886;8.728;2022-07-29T01:32:19;4.23;;;3.83;;
2866;SDS011;1441;48.886;8.728;2022-07-29T01:43:12;5.73;;;3.87;;
2866;SDS011;1441;48.886;8.728;2022-07-29T01:45:57;4.13;;;3.83;;
2866;SDS011;1441;48.886;8.728;2022-07-29T01:48:27;4.83;;;3.70;;
2866;SDS011;1441;48.886;8.728;2022-07-29T01:51:02;4.80;;;4.20;;
2866;SDS011;1441;48.886;8.728;2022-07-29T01:53:34;3.77;;;3.47;;
2866;SDS011;1441;48.886;8.728;2022-07-29T01:56:03;6.83;;;3.43;;
2866;SDS011;1441;48.886;8.728;2022-07-29T01:58:31;3.60;;;3.40;;
2866;SDS011;1441;48.886;8.728;2022-07-29T02:00:59;5.90;;;3.50;;
2866;SDS011;1441;48.886;8.728;2022-07-29T02:03:25;4.00;;;3.70;;
2866;SDS011;1441;48.886;8.728;2022-07-29T02:05:53;4.00;;;3.70;;
2866;SDS011;1441;48.886;8.728;2022-07-29T02:08:20;3.90;;;3.60;;
2866;SDS011;1441;48.886;8.728;2022-07-29T02:10:47;4.40;;;3.70;;
2866;SDS011;1441;48.886;8.728;2022-07-29T02:13:14;3.73;;;3.50;;
2866;SDS011;1441;48.886;8.728;2022-07-29T02:15:41;4.07;;;3.70;;
2866;SDS011;1441;48.886;8.728;2022-07-29T02:18:14;4.00;;;3.70;;
2866;SDS011;1441;48.886;8.728;2022-07-29T02:20:44;3.87;;;3.57;;
2866;SDS011;1441;48.886;8.728;2022-07-29T02:23:12;3.30;;;3.10;;
2866;SDS011;1441;48.886;8.728;2022-07-29T02:25:43;4.00;;;3.70;;
2866;SDS011;1441;48.886;8.728;2022-07-29T02:28:09;4.90;;;3.80;;
2866;SDS011;1441;48.886;8.728;2022-07-29T02:30:38;3.37;;;3.17;;
2866;SDS011;1441;48.886;8.728;2022-07-29T02:33:05;4.10;;;3.90;;
2866;SDS011;1441;48.886;8.728;2022-07-29T02:35:33;3.70;;;3.20;;
2866;SDS011;1441;48.886;8.728;2022-07-29T02:37:59;6.00;;;4.00;;
2866;SDS011;1441;48.886;8.728;2022-07-29T02:40:44;6.57;;;4.00;;
2866;SDS011;1441;48.886;8.728;2022-07-29T02:43:11;3.50;;;3.20;;
2866;SDS011;1441;48.886;8.728;2022-07-29T02:45:37;4.50;;;3.50;;
2866;SDS011;1441;48.886;8.728;2022-07-29T02:48:10;3.47;;;3.27;;
2866;SDS011;1441;48.886;8.728;2022-07-29T02:50:49;4.27;;;3.87;;
2866;SDS011;1441;48.886;8.728;2022-07-29T02:53:22;3.60;;;3.30;;
2866;SDS011;1441;48.886;8.728;2022-07-29T02:58:33;5.33;;;4.10;;
2866;SDS011;1441;48.886;8.728;2022-07-29T03:01:03;3.60;;;3.30;;
2866;SDS011;1441;48.886;8.728;2022-07-29T03:03:34;3.47;;;3.17;;
2866;SDS011;1441;48.886;8.728;2022-07-29T03:06:02;3.50;;;3.30;;
2866;SDS011;1441;48.886;8.728;2022-07-29T03:08:29;6.20;;;3.67;;
2866;SDS011;1441;48.886;8.728;2022-07-29T03:10:56;4.43;;;4.10;;
2866;SDS011;1441;48.886;8.728;2022-07-29T03:13:23;3.67;;;3.47;;
2866;SDS011;1441;48.886;8.728;2022-07-29T03:15:50;3.33;;;3.03;;
2866;SDS011;1441;48.886;8.728;2022-07-29T03:18:17;3.10;;;2.90;;
2866;SDS011;1441;48.886;8.728;2022-07-29T03:20:43;4.30;;;2.80;;
2866;SDS011;1441;48.886;8.728;2022-07-29T03:23:09;2.73;;;2.60;;
2866;SDS011;1441;48.886;8.728;2022-07-29T03:25:34;3.00;;;2.80;;
2866;SDS011;1441;48.886;8.728;2022-07-29T03:28:00;3.43;;;3.13;;
2866;SDS011;1441;48.886;8.728;2022-07-29T03:30:26;2.70;;;2.60;;
2866;SDS011;1441;48.886;8.728;2022-07-29T03:32:52;2.90;;;2.73;;
2866;SDS011;1441;48.886;8.728;2022-07-29T03:35:18;2.90;;;2.70;;
2866;SDS011;1441;48.886;8.728;2022-07-29T03:37:44;3.27;;;3.07;;
2866;SDS011;1441;48.886;8.728;2022-07-29T03:40:11;2.50;;;2.33;;
2866;SDS011;1441;48.886;8.728;2022-07-29T03:42:59;2.87;;;2.77;;
2866;SDS011;1441;48.886;8.728;2022-07-29T03:45:27;3.27;;;3.03;;
2866;SDS011;1441;48.886;8.728;2022-07-29T03:47:57;2.77;;;2.57;;
2866;SDS011;1441;48.886;8.728;2022-07-29T03:50:26;5.50;;;2.60;;
2866;SDS011;1441;48.886;8.728;2022-07-29T03:52:54;3.57;;;3.00;;
2866;SDS011;1441;48.886;8.728;2022-07-29T03:55:20;2.97;;;2.77;;
2866;SDS011;1441;48.886;8.728;2022-07-29T03:57:46;3.03;;;2.83;;
2866;SDS011;1441;48.886;8.728;2022-07-29T04:00:14;3.47;;;3.07;;
2866;SDS011;1441;48.886;8.728;2022-07-29T04:02:40;2.73;;;2.63;;
2866;SDS011;1441;48.886;8.728;2022-07-29T04:05:13;3.27;;;3.07;;
2866;SDS011;1441;48.886;8.728;2022-07-29T04:07:40;3.17;;;2.97;;
2866;SDS011;1441;48.886;8.728;2022-07-29T04:10:08;3.33;;;3.07;;
2866;SDS011;1441;48.886;8.728;2022-07-29T04:12:34;3.53;;;2.87;;
2866;SDS011;1441;48.886;8.728;2022-07-29T04:15:00;3.50;;;3.30;;
2866;SDS011;1441;48.886;8.728;2022-07-29T04:17:26;3.70;;;3.40;;
2866;SDS011;1441;48.886;8.728;2022-07-29T04:19:52;3.40;;;3.10;;
2866;SDS011;1441;48.886;8.728;2022-07-29T04:22:17;3.40;;;3.20;;
2866;SDS011;1441;48.886;8.728;2022-07-29T04:24:43;3.47;;;3.17;;
2866;SDS011;1441;48.886;8.728;2022-07-29T04:27:08;4.00;;;3.70;;
2866;SDS011;1441;48.886;8.728;2022-07-29T04:29:34;3.00;;;2.90;;
2866;SDS011;1441;48.886;8.728;2022-07-29T04:31:59;3.67;;;3.37;;
2866;SDS011;1441;48.886;8.728;2022-07-29T04:34:25;5.03;;;4.03;;
2866;SDS011;1441;48.886;8.728;2022-07-29T04:36:50;3.40;;;3.20;;
2866;SDS011;1441;48.886;8.728;2022-07-29T04:39:16;4.67;;;4.03;;
2866;SDS011;1441;48.886;8.728;2022-07-29T04:41:43;4.40;;;3.60;;
2866;SDS011;1441;48.886;8.728;2022-07-29T04:44:08;3.67;;;3.40;;
2866;SDS011;1441;48.886;8.728;2022-07-29T04:46:34;3.73;;;3.43;;
2866;SDS011;1441;48.886;8.728;2022-07-29T04:49:00;4.07;;;3.67;;
2866;SDS011;1441;48.886;8.728;2022-07-29T04:51:26;6.83;;;3.90;;
2866;SDS011;1441;48.886;8.728;2022-07-29T04:53:52;3.83;;;3.63;;
2866;SDS011;1441;48.886;8.728;2022-07-29T04:56:17;6.40;;;2.97;;
2866;SDS011;1441;48.886;8.728;2022-07-29T04:58:43;3.80;;;3.50;;
2866;SDS011;1441;48.886;8.728;2022-07-29T05:01:08;3.80;;;3.50;;
2866;SDS011;1441;48.886;8.728;2022-07-29T05:03:34;7.10;;;3.30;;
2866;SDS011;1441;48.886;8.728;2022-07-29T05:05:59;3.90;;;3.60;;
2866;SDS011;1441;48.886;8.728;2022-07-29T05:08:25;6.50;;;3.60;;
2866;SDS011;1441;48.886;8.728;2022-07-29T05:10:51;6.20;;;3.60;;
2866;SDS011;1441;48.886;8.728;2022-07-29T05:13:16;3.40;;;3.20;;
2866;SDS011;1441;48.886;8.728;2022-07-29T05:15:42;4.40;;;4.00;;
2866;SDS011;1441;48.886;8.728;2022-07-29T05:18:07;3.87;;;3.57;;
2866;SDS011;1441;48.886;8.728;2022-07-29T05:20:33;4.30;;;4.00;;
2866;SDS011;1441;48.886;8.728;2022-07-29T05:22:59;4.93;;;4.50;;
2866;SDS011;1441;48.886;8.728;2022-07-29T05:25:26;5.13;;;3.87;;
2866;SDS011;1441;48.886;8.728;2022-07-29T05:27:53;6.63;;;4.57;;
2866;SDS011;1441;48.886;8.728;2022-07-29T05:30:19;4.27;;;3.97;;
2866;SDS011;1441;48.886;8.728;2022-07-29T05:32:45;4.83;;;4.30;;
2866;SDS011;1441;48.886;8.728;2022-07-29T05:35:11;13.80;;;4.60;;
2866;SDS011;1441;48.886;8.728;2022-07-29T05:37:37;5.00;;;4.50;;
2866;SDS011;1441;48.886;8.728;2022-07-29T05:40:03;4.83;;;4.43;;
2866;SDS011;1441;48.886;8.728;2022-07-29T05:42:29;5.73;;;4.10;;
2866;SDS011;1441;48.886;8.728;2022-07-29T05:44:54;5.30;;;3.83;;
2866;SDS011;1441;48.886;8.728;2022-07-29T05:47:21;3.37;;;3.17;;
2866;SDS011;1441;48.886;8.728;2022-07-29T05:49:46;3.20;;;3.00;;
2866;SDS011;1441;48.886;8.728;2022-07-29T05:52:12;3.60;;;3.30;;
2866;SDS011;1441;48.886;8.728;2022-07-29T05:54:38;4.07;;;3.67;;
2866;SDS011;1441;48.886;8.728;2022-07-29T05:57:04;6.07;;;3.63;;
2866;SDS011;1441;48.886;8.728;2022-07-29T05:59:34;3.17;;;2.87;;
2866;SDS011;1441;48.886;8.728;2022-07-29T06:02:03;2.90;;;2.63;;
2866;SDS011;1441;48.886;8.728;2022-07-29T06:04:30;5.13;;;2.53;;
2866;SDS011;1441;48.886;8.728;2022-07-29T06:06:56;3.07;;;2.80;;
2866;SDS011;1441;48.886;8.728;2022-07-29T06:09:22;3.40;;;3.10;;
2866;SDS011;1441;48.886;8.728;2022-07-29T06:11:47;3.23;;;3.03;;
2866;SDS011;1441;48.886;8.728;2022-07-29T06:14:13;3.67;;;3.37;;
2866;SDS011;1441;48.886;8.728;2022-07-29T06:16:39;3.60;;;3.40;;
2866;SDS011;1441;48.886;8.728;2022-07-29T06:19:05;3.23;;;3.00;;
2866;SDS011;1441;48.886;8.728;2022-07-29T06:21:30;5.20;;;3.60;;
2866;SDS011;1441;48.886;8.728;2022-07-29T06:23:56;4.10;;;3.13;;
2866;SDS011;1441;48.886;8.728;2022-07-29T06:26:22;4.17;;;3.87;;
2866;SDS011;1441;48.886;8.728;2022-07-29T06:28:47;5.63;;;4.33;;
2866;SDS011;1441;48.886;8.728;2022-07-29T06:31:13;3.43;;;3.13;;
2866;SDS011;1441;48.886;8.728;2022-07-29T06:33:39;7.30;;;3.87;;
2866;SDS011;1441;48.886;8.728;2022-07-29T06:36:05;5.33;;;3.40;;
2866;SDS011;1441;48.886;8.728;2022-07-29T06:38:31;4.33;;;3.40;;
2866;SDS011;1441;48.886;8.728;2022-07-29T06:40:57;5.17;;;3.53;;
2866;SDS011;1441;48.886;8.728;2022-07-29T06:43:35;5.60;;;3.50;;
2866;SDS011;1441;48.886;8.728;2022-07-29T06:46:13;4.67;;;3.77;;
2866;SDS011;1441;48.886;8.728;2022-07-29T06:48:40;4.73;;;3.50;;
2866;SDS011;1441;48.886;8.728;2022-07-29T06:51:09;9.93;;;3.70;;
2866;SDS011;1441;48.886;8.728;2022-07-29T06:53:36;4.67;;;3.70;;
2866;SDS011;1441;48.886;8.728;2022-07-29T06:56:03;3.13;;;2.97;;
2866;SDS011;1441;48.886;8.728;2022-07-29T06:58:30;8.40;;;3.37;;
2866;SDS011;1441;48.886;8.728;2022-07-29T07:01:00;4.20;;;3.70;;
2866;SDS011;1441;48.886;8.728;2022-07-29T07:03:28;3.53;;;3.23;;
2866;SDS011;1441;48.886;8.728;2022-07-29T07:05:53;8.93;;;3.70;;
2866;SDS011;1441;48.886;8.728;2022-07-29T07:08:19;4.80;;;3.50;;
2866;SDS011;1441;48.886;8.728;2022-07-29T07:10:46;4.63;;;3.70;;
2866;SDS011;1441;48.886;8.728;2022-07-29T07:13:12;4.13;;;3.73;;
2866;SDS011;1441;48.886;8.728;2022-07-29T07:15:39;4.17;;;3.70;;
2866;SDS011;1441;48.886;8.728;2022-07-29T07:18:05;3.30;;;2.90;;
2866;SDS011;1441;48.886;8.728;2022-07-29T07:20:32;3.07;;;2.70;;
2866;SDS011;1441;48.886;8.728;2022-07-29T07:22:58;4.53;;;3.37;;
2866;SDS011;1441;48.886;8.728;2022-07-29T07:25:23;3.50;;;3.10;;
2866;SDS011;1441;48.886;8.728;2022-07-29T07:27:49;3.03;;;2.93;;
2866;SDS011;1441;48.886;8.728;2022-07-29T07:30:15;3.63;;;3.20;;
2866;SDS011;1441;48.886;8.728;2022-07-29T07:32:40;3.97;;;3.57;;
2866;SDS011;1441;48.886;8.728;2022-07-29T07:35:06;3.10;;;2.93;;
2866;SDS011;1441;48.886;8.728;2022-07-29T07:37:33;5.33;;;3.30;;
2866;SDS011;1441;48.886;8.728;2022-07-29T07:39:59;5.43;;;3.20;;
2866;SDS011;1441;48.886;8.728;2022-07-29T07:42:25;3.20;;;3.00;;
2866;SDS011;1441;48.886;8.728;2022-07-29T07:44:51;5.10;;;2.57;;
2866;SDS011;1441;48.886;8.728;2022-07-29T07:47:17;3.17;;;2.87;;
2866;SDS011;1441;48.886;8.728;2022-07-29T07:49:45;6.73;;;3.10;;
2866;SDS011;1441;48.886;8.728;2022-07-29T07:52:12;3.87;;;3.50;;
2866;SDS011;1441;48.886;8.728;2022-07-29T07:54:38;5.23;;;2.97;;
2866;SDS011;1441;48.886;8.728;2022-07-29T07:57:03;3.80;;;3.07;;
2866;SDS011;1441;48.886;8.728;2022-07-29T07:59:29;3.40;;;3.10;;
2866;SDS011;1441;48.886;8.728;2022-07-29T08:01:55;3.03;;;2.50;;
2866;SDS011;1441;48.886;8.728;2022-07-29T08:04:20;2.90;;;2.70;;
2866;SDS011;1441;48.886;8.728;2022-07-29T08:06:46;3.90;;;3.50;;
2866;SDS011;1441;48.886;8.728;2022-07-29T08:09:11;3.80;;;3.30;;
2866;SDS011;1441;48.886;8.728;2022-07-29T08:11:37;3.63;;;3.33;;
2866;SDS011;1441;48.886;8.728;2022-07-29T08:14:03;6.47;;;3.90;;
2866;SDS011;1441;48.886;8.728;2022-07-29T08:16:28;3.33;;;3.03;;
2866;SDS011;1441;48.886;8.728;2022-07-29T08:18:54;4.03;;;3.33;;
2866;SDS011;1441;48.886;8.728;2022-07-29T08:21:22;3.73;;;3.43;;
2866;SDS011;1441;48.886;8.728;2022-07-29T08:23:48;5.80;;;2.83;;
2866;SDS011;1441;48.886;8.728;2022-07-29T08:26:17;3.27;;;2.97;;
2866;SDS011;1441;48.886;8.728;2022-07-29T08:28:44;9.10;;;2.87;;
2866;SDS011;1441;48.886;8.728;2022-07-29T08:31:11;4.93;;;2.20;;
2866;SDS011;1441;48.886;8.728;2022-07-29T08:33:37;2.80;;;2.60;;
2866;SDS011;1441;48.886;8.728;2022-07-29T08:36:05;4.70;;;3.03;;
2866;SDS011;1441;48.886;8.728;2022-07-29T08:38:31;2.83;;;2.63;;
2866;SDS011;1441;48.886;8.728;2022-07-29T08:40:57;2.70;;;2.43;;
2866;SDS011;1441;48.886;8.728;2022-07-29T08:43:25;4.30;;;3.00;;
2866;SDS011;1441;48.886;8.728;2022-07-29T08:45:51;5.97;;;3.00;;
2866;SDS011;1441;48.886;8.728;2022-07-29T08:48:18;2.87;;;2.67;;
2866;SDS011;1441;48.886;8.728;2022-07-29T08:50:45;5.63;;;2.63;;
2866;SDS011;1441;48.886;8.728;2022-07-29T08:53:16;2.90;;;2.70;;
2866;SDS011;1441;48.886;8.728;2022-07-29T08:55:43;8.90;;;2.93;;
2866;SDS011;1441;48.886;8.728;2022-07-29T08:58:11;2.57;;;2.40;;
2866;SDS011;1441;48.886;8.728;2022-07-29T09:00:42;8.00;;;3.00;;
2866;SDS011;1441;48.886;8.728;2022-07-29T09:03:09;2.87;;;2.40;;
2866;SDS011;1441;48.886;8.728;2022-07-29T09:05:41;9.33;;;2.97;;
2866;SDS011;1441;48.886;8.728;2022-07-29T09:08:07;4.50;;;3.10;;
2866;SDS011;1441;48.886;8.728;2022-07-29T09:10:34;6.83;;;2.70;;
2866;SDS011;1441;48.886;8.728;2022-07-29T09:13:00;3.20;;;2.50;;
2866;SDS011;1441;48.886;8.728;2022-07-29T09:15:26;10.83;;;2.60;;
2866;SDS011;1441;48.886;8.728;2022-07-29T09:17:51;2.80;;;2.60;;
2866;SDS011;1441;48.886;8.728;2022-07-29T09:20:20;3.43;;;2.07;;
2866;SDS011;1441;48.886;8.728;2022-07-29T09:22:48;2.90;;;2.30;;
2866;SDS011;1441;48.886;8.728;2022-07-29T09:25:15;3.60;;;2.77;;
2866;SDS011;1441;48.886;8.728;2022-07-29T09:28:05;6.40;;;3.10;;
2866;SDS011;1441;48.886;8.728;2022-07-29T09:30:31;3.07;;;2.50;;
2866;SDS011;1441;48.886;8.728;2022-07-29T09:32:58;3.03;;;2.67;;
2866;SDS011;1441;48.886;8.728;2022-07-29T09:35:28;3.67;;;2.53;;
2866;SDS011;1441;48.886;8.728;2022-07-29T09:37:54;9.40;;;2.47;;
2866;SDS011;1441;48.886;8.728;2022-07-29T09:40:24;2.40;;;2.30;;
2866;SDS011;1441;48.886;8.728;2022-07-29T09:42:51;3.30;;;2.57;;
2866;SDS011;1441;48.886;8.728;2022-07-29T09:45:31;4.00;;;2.30;;
2866;SDS011;1441;48.886;8.728;2022-07-29T09:47:59;2.90;;;2.70;;
2866;SDS011;1441;48.886;8.728;2022-07-29T09:50:40;2.30;;;2.20;;
2866;SDS011;1441;48.886;8.728;2022-07-29T09:53:08;6.73;;;2.70;;
2866;SDS011;1441;48.886;8.728;2022-07-29T09:55:47;2.57;;;2.33;;
2866;SDS011;1441;48.886;8.728;2022-07-29T10:00:43;3.40;;;2.63;;
2866;SDS011;1441;48.886;8.728;2022-07-29T10:03:10;2.87;;;2.50;;
2866;SDS011;1441;48.886;8.728;2022-07-29T10:05:36;5.97;;;2.57;;
2866;SDS011;1441;48.886;8.728;2022-07-29T10:08:02;8.90;;;2.60;;
2866;SDS011;1441;48.886;8.728;2022-07-29T10:10:31;2.83;;;2.10;;
2866;SDS011;1441;48.886;8.728;2022-07-29T10:13:00;3.93;;;2.50;;
2866;SDS011;1441;48.886;8.728;2022-07-29T10:15:28;2.00;;;1.90;;
2866;SDS011;1441;48.886;8.728;2022-07-29T10:17:56;8.60;;;3.30;;
2866;SDS011;1441;48.886;8.728;2022-07-29T10:20:23;3.90;;;2.53;;
2866;SDS011;1441;48.886;8.728;2022-07-29T10:22:49;2.97;;;2.40;;
2866;SDS011;1441;48.886;8.728;2022-07-29T10:25:16;2.53;;;2.10;;
2866;SDS011;1441;48.886;8.728;2022-07-29T10:27:43;7.47;;;2.10;;
2866;SDS011;1441;48.886;8.728;2022-07-29T10:30:10;2.67;;;2.37;;
2866;SDS011;1441;48.886;8.728;2022-07-29T10:35:15;3.73;;;2.43;;
2866;SDS011;1441;48.886;8.728;2022-07-29T10:43:51;9.07;;;2.60;;
2866;SDS011;1441;48.886;8.728;2022-07-29T10:46:26;5.13;;;2.57;;
2866;SDS011;1441;48.886;8.728;2022-07-29T10:54:15;4.23;;;2.53;;
2866;SDS011;1441;48.886;8.728;2022-07-29T10:59:47;2.17;;;2.07;;
2866;SDS011;1441;48.886;8.728;2022-07-29T11:07:27;4.00;;;2.23;;
2866;SDS011;1441;48.886;8.728;2022-07-29T11:15:02;3.57;;;2.40;;
2866;SDS011;1441;48.886;8.728;2022-07-29T11:29:03;3.67;;;2.93;;
2866;SDS011;1441;48.886;8.728;2022-07-29T11:34:15;2.70;;;2.00;;
2866;SDS011;1441;48.886;8.728;2022-07-29T11:39:31;2.50;;;2.40;;
2866;SDS011;1441;48.886;8.728;2022-07-29T11:44:57;2.50;;;2.20;;
2866;SDS011;1441;48.886;8.728;2022-07-29T11:47:35;4.77;;;2.73;;
2866;SDS011;1441;48.886;8.728;2022-07-29T11:50:27;5.80;;;3.10;;
2866;SDS011;1441;48.886;8.728;2022-07-29T11:52:57;5.60;;;2.83;;
2866;SDS011;1441;48.886;8.728;2022-07-29T11:55:23;5.80;;;3.63;;
2866;SDS011;1441;48.886;8.728;2022-07-29T12:02:55;3.67;;;2.60;;
2866;SDS011;1441;48.886;8.728;2022-07-29T12:05:30;4.33;;;2.57;;
2866;SDS011;1441;48.886;8.728;2022-07-29T12:08:05;10.10;;;2.70;;
2866;SDS011;1441;48.886;8.728;2022-07-29T12:10:43;4.37;;;2.40;;
2866;SDS011;1441;48.886;8.728;2022-07-29T12:13:11;2.97;;;2.70;;
2866;SDS011;1441;48.886;8.728;2022-07-29T12:15:37;2.43;;;2.23;;
2866;SDS011;1441;48.886;8.728;2022-07-29T12:18:10;2.80;;;2.60;;
2866;SDS011;1441;48.886;8.728;2022-07-29T12:20:40;2.70;;;2.50;;
2866;SDS011;1441;48.886;8.728;2022-07-29T12:23:06;8.00;;;2.90;;
2866;SDS011;1441;48.886;8.728;2022-07-29T12:25:34;4.10;;;2.90;;
2866;SDS011;1441;48.886;8.728;2022-07-29T12:28:03;3.97;;;2.47;;
2866;SDS011;1441;48.886;8.728;2022-07-29T12:30:49;4.10;;;2.50;;
2866;SDS011;1441;48.886;8.728;2022-07-29T12:33:25;5.63;;;2.70;;
2866;SDS011;1441;48.886;8.728;2022-07-29T12:35:54;3.17;;;2.27;;
2866;SDS011;1441;48.886;8.728;2022-07-29T12:38:21;3.33;;;2.10;;
2866;SDS011;1441;48.886;8.728;2022-07-29T12:40:48;4.40;;;2.13;;
2866;SDS011;1441;48.886;8.728;2022-07-29T12:43:16;7.30;;;2.13;;
2866;SDS011;1441;48.886;8.728;2022-07-29T12:45:45;4.30;;;2.40;;
2866;SDS011;1441;48.886;8.728;2022-07-29T12:48:13;2.33;;;2.10;;
2866;SDS011;1441;48.886;8.728;2022-07-29T12:50:52;7.43;;;2.50;;
2866;SDS011;1441;48.886;8.728;2022-07-29T12:53:18;2.53;;;2.33;;
2866;SDS011;1441;48.886;8.728;2022-07-29T12:55:45;4.73;;;3.10;;
2866;SDS011;1441;48.886;8.728;2022-07-29T12:58:14;4.17;;;2.07;;
2866;SDS011;1441;48.886;8.728;2022-07-29T13:01:02;2.20;;;1.77;;
2866;SDS011;1441;48.886;8.728;2022-07-29T13:03:43;4.53;;;2.00;;
2866;SDS011;1441;48.886;8.728;2022-07-29T13:11:43;2.93;;;2.00;;
2866;SDS011;1441;48.886;8.728;2022-07-29T13:14:12;2.33;;;2.10;;
2866;SDS011;1441;48.886;8.728;2022-07-29T13:22:18;2.30;;;2.07;;
2866;SDS011;1441;48.886;8.728;2022-07-29T13:27:18;4.90;;;1.80;;
2866;SDS011;1441;48.886;8.728;2022-07-29T13:29:46;3.83;;;1.70;;
2866;SDS011;1441;48.886;8.728;2022-07-29T13:32:11;3.53;;;1.67;;
2866;SDS011;1441;48.886;8.728;2022-07-29T13:34:38;3.23;;;1.90;;
2866;SDS011;1441;48.886;8.728;2022-07-29T13:37:04;5.20;;;1.77;;
2866;SDS011;1441;48.886;8.728;2022-07-29T13:39:30;3.23;;;1.97;;
2866;SDS011;1441;48.886;8.728;2022-07-29T13:41:55;1.67;;;1.53;;
2866;SDS011;1441;48.886;8.728;2022-07-29T13:44:21;7.00;;;2.50;;
2866;SDS011;1441;48.886;8.728;2022-07-29T13:46:47;7.03;;;2.33;;
2866;SDS011;1441;48.886;8.728;2022-07-29T13:49:12;6.40;;;1.50;;
2866;SDS011;1441;48.886;8.728;2022-07-29T13:51:38;3.50;;;1.50;;
2866;SDS011;1441;48.886;8.728;2022-07-29T13:54:03;2.60;;;1.43;;
2866;SDS011;1441;48.886;8.728;2022-07-29T13:56:29;7.70;;;1.37;;
2866;SDS011;1441;48.886;8.728;2022-07-29T13:58:55;3.57;;;2.00;;
2866;SDS011;1441;48.886;8.728;2022-07-29T14:01:22;3.43;;;1.60;;
2866;SDS011;1441;48.886;8.728;2022-07-29T14:03:47;1.60;;;1.43;;
2866;SDS011;1441;48.886;8.728;2022-07-29T14:06:13;2.30;;;1.30;;
2866;SDS011;1441;48.886;8.728;2022-07-29T14:08:39;1.70;;;1.70;;
2866;SDS011;1441;48.886;8.728;2022-07-29T14:11:05;1.33;;;1.10;;
2866;SDS011;1441;48.886;8.728;2022-07-29T14:13:31;6.73;;;1.43;;
2866;SDS011;1441;48.886;8.728;2022-07-29T14:15:56;2.87;;;1.27;;
2866;SDS011;1441;48.886;8.728;2022-07-29T14:18:22;1.93;;;1.40;;
2866;SDS011;1441;48.886;8.728;2022-07-29T14:20:47;1.40;;;1.30;;
2866;SDS011;1441;48.886;8.728;2022-07-29T14:23:13;2.53;;;2.13;;
2866;SDS011;1441;48.886;8.728;2022-07-29T14:25:39;4.20;;;3.80;;
2866;SDS011;1441;48.886;8.728;2022-07-29T14:28:04;2.40;;;2.20;;
2866;SDS011;1441;48.886;8.728;2022-07-29T14:30:30;2.37;;;1.70;;
2866;SDS011;1441;48.886;8.728;2022-07-29T14:32:56;2.87;;;1.50;;
2866;SDS011;1441;48.886;8.728;2022-07-29T14:35:21;2.17;;;1.40;;
2866;SDS011;1441;48.886;8.728;2022-07-29T14:37:47;3.63;;;1.80;;
2866;SDS011;1441;48.886;8.728;2022-07-29T14:40:13;2.40;;;1.40;;
2866;SDS011;1441;48.886;8.728;2022-07-29T14:42:38;3.80;;;1.70;;
2866;SDS011;1441;48.886;8.728;2022-07-29T14:45:05;1.90;;;1.67;;
2866;SDS011;1441;48.886;8.728;2022-07-29T14:47:31;3.10;;;1.60;;
2866;SDS011;1441;48.886;8.728;2022-07-29T14:49:57;3.60;;;1.63;;
2866;SDS011;1441;48.886;8.728;2022-07-29T14:52:22;2.20;;;1.50;;
2866;SDS011;1441;48.886;8.728;2022-07-29T14:54:48;2.43;;;1.30;;
2866;SDS011;1441;48.886;8.728;2022-07-29T14:57:14;2.40;;;1.43;;
2866;SDS011;1441;48.886;8.728;2022-07-29T14:59:39;4.73;;;1.50;;
2866;SDS011;1441;48.886;8.728;2022-07-29T15:02:05;2.50;;;1.70;;
2866;SDS011;1441;48.886;8.728;2022-07-29T15:04:30;6.60;;;1.53;;
2866;SDS011;1441;48.886;8.728;2022-07-29T15:06:56;2.87;;;1.40;;
2866;SDS011;1441;48.886;8.728;2022-07-29T15:09:22;1.40;;;1.30;;
2866;SDS011;1441;48.886;8.728;2022-07-29T15:11:48;3.40;;;1.60;;
2866;SDS011;1441;48.886;8.728;2022-07-29T15:14:14;2.13;;;1.60;;
2866;SDS011;1441;48.886;8.728;2022-07-29T15:16:39;2.20;;;1.60;;
2866;SDS011;1441;48.886;8.728;2022-07-29T15:19:07;4.90;;;1.63;;
2866;SDS011;1441;48.886;8.728;2022-07-29T15:21:33;1.97;;;1.50;;
2866;SDS011;1441;48.886;8.728;2022-07-29T15:23:59;3.57;;;1.47;;
2866;SDS011;1441;48.886;8.728;2022-07-29T15:26:24;6.13;;;1.60;;
2866;SDS011;1441;48.886;8.728;2022-07-29T15:28:50;4.53;;;1.60;;
2866;SDS011;1441;48.886;8.728;2022-07-29T15:31:16;2.57;;;1.60;;
2866;SDS011;1441;48.886;8.728;2022-07-29T15:33:43;6.30;;;2.00;;
2866;SDS011;1441;48.886;8.728;2022-07-29T15:36:09;2.13;;;1.93;;
2866;SDS011;1441;48.886;8.728;2022-07-29T15:38:37;9.93;;;1.53;;
2866;SDS011;1441;48.886;8.728;2022-07-29T15:41:04;2.17;;;1.57;;
2866;SDS011;1441;48.886;8.728;2022-07-29T15:43:29;5.17;;;1.97;;
2866;SDS011;1441;48.886;8.728;2022-07-29T15:45:55;8.70;;;2.00;;
2866;SDS011;1441;48.886;8.728;2022-07-29T15:48:39;2.00;;;1.87;;
2866;SDS011;1441;48.886;8.728;2022-07-29T15:51:05;6.50;;;1.30;;
2866;SDS011;1441;48.886;8.728;2022-07-29T15:53:30;2.10;;;1.17;;
2866;SDS011;1441;48.886;8.728;2022-07-29T15:55:56;3.23;;;1.70;;
2866;SDS011;1441;48.886;8.728;2022-07-29T15:58:22;1.77;;;1.50;;
2866;SDS011;1441;48.886;8.728;2022-07-29T16:00:47;3.17;;;1.40;;
2866;SDS011;1441;48.886;8.728;2022-07-29T16:03:13;2.70;;;1.70;;
2866;SDS011;1441;48.886;8.728;2022-07-29T16:05:39;3.33;;;1.60;;
2866;SDS011;1441;48.886;8.728;2022-07-29T16:08:04;2.90;;;1.23;;
2866;SDS011;1441;48.886;8.728;2022-07-29T16:10:30;2.30;;;1.47;;
2866;SDS011;1441;48.886;8.728;2022-07-29T16:12:56;2.57;;;1.90;;
2866;SDS011;1441;48.886;8.728;2022-07-29T16:15:21;1.97;;;1.40;;
2866;SDS011;1441;48.886;8.728;2022-07-29T16:17:47;2.63;;;2.43;;
2866;SDS011;1441;48.886;8.728;2022-07-29T16:20:14;5.60;;;2.80;;
2866;SDS011;1441;48.886;8.728;2022-07-29T16:22:40;18.73;;;3.20;;
2866;SDS011;1441;48.886;8.728;2022-07-29T16:25:06;2.33;;;2.13;;
2866;SDS011;1441;48.886;8.728;2022-07-29T16:27:32;5.00;;;2.67;;
2866;SDS011;1441;48.886;8.728;2022-07-29T16:29:58;2.30;;;1.60;;
2866;SDS011;1441;48.886;8.728;2022-07-29T16:32:24;4.40;;;1.93;;
2866;SDS011;1441;48.886;8.728;2022-07-29T16:34:50;2.73;;;1.57;;
2866;SDS011;1441;48.886;8.728;2022-07-29T16:37:15;2.60;;;1.77;;
2866;SDS011;1441;48.886;8.728;2022-07-29T16:39:41;5.17;;;1.77;;
2866;SDS011;1441;48.886;8.728;2022-07-29T16:42:07;5.33;;;1.60;;
2866;SDS011;1441;48.886;8.728;2022-07-29T16:44:33;4.97;;;1.70;;
2866;SDS011;1441;48.886;8.728;2022-07-29T16:46:59;3.50;;;1.40;;
2866;SDS011;1441;48.886;8.728;2022-07-29T16:49:25;3.17;;;1.40;;